| time (UTC) | temp F | wind direction | speed knots | gust knots | rain 1hr in | rain 24hr in | rain mn in | humidity % | barometer mb |
| 20260507075717 | 42 | 279 | 1.7 | 1.7 | 0.00 | 0.00 | 0.00 | 90 | 1006.4 |
| 20260507075213 | 42 | 296 | 0.9 | 2.6 | 0.00 | 0.00 | 0.00 | 91 | 1006.5 |
| 20260507074710 | 42 | 283 | 0.9 | 1.7 | 0.00 | 0.00 | 0.00 | 90 | 1006.5 |
| 20260507074208 | 43 | 103 | 0.0 | 1.7 | 0.00 | 0.00 | 0.00 | 90 | 1006.3 |
| 20260507073704 | 42 | 304 | 0.0 | 1.7 | 0.00 | 0.00 | 0.00 | 90 | 1006.3 |
| 20260507073200 | 42 | 282 | 0.0 | 0.9 | 0.00 | 0.00 | 0.00 | 93 | 1005.8 |
| 20260507072658 | 42 | 266 | 2.6 | 2.6 | 0.00 | 0.00 | 0.00 | 94 | 1005.9 |
| 20260507072155 | 42 | 165 | 0.0 | 0.9 | 0.00 | 0.00 | 0.00 | 93 | 1005.9 |
| 20260507071653 | 43 | 38 | 0.0 | 1.7 | 0.00 | 0.00 | 0.00 | 91 | 1005.7 |
| 20260507071149 | 43 | 298 | 0.9 | 1.7 | 0.00 | 0.00 | 0.00 | 88 | 1005.9 |
| 20260507070646 | 43 | 324 | 4.3 | 8.7 | 0.00 | 0.00 | 0.00 | 88 | 1005.9 |
| 20260507070143 | 43 | 139 | 1.7 | 1.7 | 0.00 | 0.00 | 0.00 | 91 | 1006.0 |
| 20260507065639 | 44 | 154 | 1.7 | 1.7 | 0.00 | 0.00 | 0.00 | 89 | 1005.8 |
| 20260507065136 | 44 | 306 | 3.5 | 4.3 | 0.00 | 0.00 | 0.00 | 86 | 1005.7 |
| 20260507064634 | 44 | 312 | 5.2 | 7.8 | 0.00 | 0.00 | 0.00 | 85 | 1005.8 |
| 20260507064133 | 44 | 294 | 7.0 | 7.0 | 0.00 | 0.00 | 0.00 | 86 | 1005.7 |
| 20260507063630 | 44 | 295 | 4.3 | 9.6 | 0.00 | 0.00 | 0.00 | 86 | 1005.3 |
| 20260507063127 | 44 | 317 | 2.6 | 5.2 | 0.00 | 0.00 | 0.00 | 87 | 1005.3 |
| 20260507062623 | 44 | 287 | 5.2 | 7.0 | 0.00 | 0.00 | 0.00 | 86 | 1005.5 |
| 20260507062121 | 44 | 305 | 5.2 | 9.6 | 0.00 | 0.00 | 0.00 | 86 | 1005.6 |
| 20260507061619 | 44 | 286 | 6.1 | 9.6 | 0.00 | 0.00 | 0.00 | 85 | 1005.3 |
| 20260507061117 | 45 | 319 | 1.7 | 3.5 | 0.00 | 0.00 | 0.00 | 86 | 1005.4 |
| 20260507060614 | 44 | 274 | 3.5 | 4.3 | 0.00 | 0.00 | 0.00 | 89 | 1005.5 |
| 20260507060111 | 44 | 268 | 3.5 | 4.3 | 0.00 | 0.00 | 0.00 | 90 | 1005.6 |
| 20260507055606 | 44 | 302 | 5.2 | 7.8 | 0.00 | 0.00 | 0.00 | 96 | 1005.5 |
| 20260507055102 | 44 | 243 | 1.7 | 1.7 | 0.00 | 0.00 | 0.00 | 97 | 1005.5 |
| 20260507054558 | 45 | 174 | 0.0 | 1.7 | 0.00 | 0.00 | 0.00 | 97 | 1005.2 |
| 20260507054055 | 45 | 219 | 0.0 | 1.7 | 0.00 | 0.00 | 0.00 | 97 | 1005.2 |
| 20260507053553 | 45 | 121 | 1.7 | 1.7 | 0.00 | 0.00 | 0.00 | 97 | 1005.0 |
| 20260507053052 | 45 | 124 | 0.0 | 0.9 | 0.00 | 0.00 | 0.00 | 97 | 1004.6 |
| 20260507052549 | 45 | 119 | 0.0 | 0.0 | 0.00 | 0.00 | 0.00 | 97 | 1004.9 |
| 20260507052046 | 45 | 283 | 0.0 | 1.7 | 0.00 | 0.00 | 0.00 | 97 | 1005.3 |
| 20260507051543 | 45 | 150 | 0.0 | 0.9 | 0.00 | 0.00 | 0.00 | 97 | 1005.4 |
| 20260507051040 | 45 | 6 | 0.0 | 0.9 | 0.00 | 0.00 | 0.00 | 97 | 1005.3 |
| 20260507050536 | 45 | 141 | 0.9 | 0.9 | 0.00 | 0.00 | 0.00 | 96 | 1005.6 |
| 20260507050033 | 45 | 222 | 0.9 | 1.7 | 0.00 | 0.00 | 0.00 | 96 | 1005.3 |
| 20260507045530 | 45 | 109 | 0.9 | 1.7 | 0.00 | 0.00 | 0.00 | 96 | 1005.2 |
| 20260507045027 | 45 | 235 | 0.0 | 0.9 | 0.02 | 0.00 | 0.00 | 96 | 1005.4 |
| 20260507044524 | 46 | 338 | 0.0 | 0.9 | 0.02 | 0.00 | 0.00 | 95 | 1005.5 |
| 20260507044020 | 46 | 193 | 0.0 | 0.9 | 0.00 | 0.00 | 0.00 | 95 | 1005.3 |
| 20260507043516 | 46 | 123 | 1.7 | 1.7 | 0.00 | 0.00 | 0.00 | 95 | 1005.1 |
| 20260507043014 | 46 | 214 | 1.7 | 2.6 | 0.00 | 0.00 | 0.00 | 94 | 1005.4 |
| 20260507042510 | 46 | 272 | 2.6 | 3.5 | 0.00 | 0.00 | 0.00 | 94 | 1005.4 |
| 20260507042005 | 46 | 202 | 0.0 | 0.9 | 0.00 | 0.00 | 0.00 | 94 | 1005.5 |
| 20260507041503 | 46 | 250 | 3.5 | 3.5 | 0.00 | 0.00 | 0.00 | 95 | 1005.5 |
| 20260507040959 | 46 | 309 | 1.7 | 1.7 | 0.00 | 0.00 | 0.00 | 95 | 1005.6 |
| 20260507040455 | 46 | 283 | 0.0 | 1.7 | 0.02 | 0.00 | 0.00 | 95 | 1005.7 |
| 20260507035951 | 47 | 231 | 2.6 | 2.6 | 0.02 | 1.39 | 1.39 | 95 | 1005.6 |
| 20260507035448 | 47 | 314 | 2.6 | 4.3 | 0.00 | 1.38 | 1.38 | 96 | 1005.4 |
| 20260507034945 | 47 | 240 | 0.0 | 0.9 | 0.02 | 1.38 | 1.38 | 97 | 1005.5 |
| 20260507034441 | 47 | 177 | 0.9 | 1.7 | 0.05 | 1.38 | 1.38 | 96 | 1005.5 |
| 20260507033940 | 47 | 113 | 0.0 | 0.9 | 0.05 | 1.38 | 1.38 | 96 | 1005.5 |
| 20260507033437 | 47 | 303 | 4.3 | 7.0 | 0.07 | 1.37 | 1.37 | 97 | 1005.7 |
| 20260507032934 | 47 | 267 | 2.6 | 3.5 | 0.07 | 1.37 | 1.37 | 97 | 1005.7 |
| 20260507032431 | 47 | 262 | 1.7 | 2.6 | 0.02 | 1.36 | 1.36 | 97 | 1005.5 |
| 20260507031927 | 47 | 243 | 0.0 | 1.7 | 0.00 | 1.36 | 1.36 | 97 | 1005.4 |
| 20260507031426 | 47 | 249 | 2.6 | 2.6 | 0.00 | 1.36 | 1.36 | 97 | 1005.3 |
| 20260507030920 | 47 | 242 | 1.7 | 2.6 | 0.05 | 1.36 | 1.36 | 97 | 1005.3 |
| 20260507030418 | 48 | 231 | 0.9 | 2.6 | 0.12 | 1.36 | 1.36 | 98 | 1005.2 |
| 20260507025915 | 48 | 259 | 2.6 | 3.5 | 0.28 | 1.35 | 1.35 | 97 | 1005.1 |
| 20260507025412 | 48 | 283 | 3.5 | 3.5 | 0.35 | 1.34 | 1.34 | 98 | 1005.2 |
| 20260507024910 | 48 | 230 | 1.7 | 3.5 | 0.19 | 1.30 | 1.30 | 98 | 1005.1 |
| 20260507024407 | 49 | 269 | 3.5 | 4.3 | 0.07 | 1.28 | 1.28 | 98 | 1005.3 |
| 20260507023902 | 49 | 253 | 1.7 | 3.5 | 0.05 | 1.27 | 1.27 | 98 | 1005.3 |
| 20260507023359 | 50 | 234 | 1.7 | 3.5 | 0.12 | 1.27 | 1.27 | 98 | 1005.1 |
| 20260507022857 | 50 | 276 | 3.5 | 3.5 | 0.05 | 1.26 | 1.26 | 98 | 1004.9 |
| 20260507022353 | 50 | 294 | 1.7 | 2.6 | 0.07 | 1.25 | 1.25 | 98 | 1004.9 |
| 20260507021849 | 50 | 241 | 1.7 | 3.5 | 0.17 | 1.25 | 1.25 | 98 | 1005.0 |
| 20260507021344 | 50 | 220 | 0.9 | 0.9 | 0.21 | 1.24 | 1.24 | 98 | 1004.8 |
| 20260507020843 | 50 | 147 | 0.0 | 0.9 | 0.14 | 1.22 | 1.22 | 98 | 1004.9 |
| 20260507020339 | 51 | 233 | 0.0 | 1.7 | 0.05 | 1.20 | 1.20 | 98 | 1004.6 |
| 20260507015836 | 51 | 240 | 1.7 | 3.5 | 0.05 | 1.20 | 1.20 | 98 | 1004.9 |
| 20260507015334 | 51 | 293 | 0.0 | 0.9 | 0.07 | 1.19 | 1.19 | 98 | 1004.9 |
| 20260507014831 | 51 | 224 | 0.0 | 0.0 | 0.07 | 1.19 | 1.19 | 98 | 1004.8 |
| 20260507014327 | 51 | 299 | 0.0 | 1.7 | 0.09 | 1.18 | 1.18 | 98 | 1005.0 |
| 20260507013824 | 51 | 261 | 1.7 | 1.7 | 0.12 | 1.17 | 1.17 | 98 | 1004.8 |
| 20260507013321 | 52 | 229 | 1.7 | 1.7 | 0.05 | 1.16 | 1.16 | 98 | 1004.8 |
| 20260507012819 | 52 | 235 | 0.0 | 1.7 | 0.12 | 1.15 | 1.15 | 98 | 1005.0 |
| 20260507012314 | 52 | 250 | 0.0 | 1.7 | 0.21 | 1.15 | 1.15 | 98 | 1005.0 |
| 20260507011811 | 52 | 231 | 1.7 | 1.7 | 0.14 | 1.13 | 1.13 | 98 | 1005.0 |
| 20260507011308 | 52 | 218 | 0.0 | 1.7 | 0.07 | 1.11 | 1.11 | 98 | 1005.0 |
| 20260507010808 | 53 | 233 | 0.9 | 0.9 | 0.07 | 1.11 | 1.11 | 98 | 1004.8 |
| 20260507010304 | 53 | 249 | 1.7 | 1.7 | 0.07 | 1.10 | 1.10 | 98 | 1004.7 |
| 20260507005801 | 53 | 295 | 0.9 | 0.9 | 0.09 | 1.09 | 1.09 | 98 | 1004.7 |
| 20260507005257 | 53 | 231 | 0.9 | 1.7 | 0.12 | 1.09 | 1.09 | 98 | 1004.9 |
| 20260507004754 | 53 | 238 | 0.9 | 1.7 | 0.07 | 1.07 | 1.07 | 98 | 1004.9 |
| 20260507004252 | 53 | 290 | 0.0 | 1.7 | 0.09 | 1.07 | 1.07 | 98 | 1004.8 |
| 20260507003748 | 53 | 103 | 0.0 | 1.7 | 0.09 | 1.06 | 1.06 | 98 | 1004.7 |
| 20260507003244 | 53 | 154 | 1.7 | 1.7 | 0.17 | 1.05 | 1.05 | 98 | 1004.7 |
| 20260507002740 | 54 | 178 | 1.7 | 1.7 | 0.28 | 1.04 | 1.04 | 98 | 1004.7 |
| 20260507002236 | 54 | 225 | 0.9 | 2.6 | 0.38 | 1.02 | 1.02 | 98 | 1004.6 |
| 20260507001733 | 55 | 216 | 1.7 | 2.6 | 0.47 | 0.99 | 0.99 | 98 | 1004.6 |
| 20260507001230 | 55 | 129 | 0.0 | 0.9 | 0.40 | 0.96 | 0.96 | 99 | 1004.6 |
| 20260507000726 | 55 | 343 | 0.0 | 1.7 | 0.40 | 0.92 | 0.92 | 98 | 1004.6 |
| 20260507000222 | 56 | 230 | 0.0 | 4.3 | 0.33 | 0.89 | 0.89 | 98 | 1004.4 |
| 20260506235719 | 56 | 296 | 0.9 | 2.6 | 0.19 | 0.85 | 0.85 | 99 | 1004.3 |
| 20260506235214 | 56 | 302 | 1.7 | 1.7 | 0.38 | 0.83 | 0.83 | 99 | 1003.9 |
| 20260506234712 | 56 | 304 | 0.0 | 1.7 | 0.40 | 0.81 | 0.81 | 99 | 1004.2 |
| 20260506234209 | 56 | 282 | 1.7 | 2.6 | 0.17 | 0.77 | 0.77 | 99 | 1004.4 |
| 20260506233707 | 56 | 281 | 0.9 | 1.7 | 0.05 | 0.74 | 0.74 | 99 | 1004.2 |
| 20260506233203 | 56 | 224 | 0.0 | 1.7 | 0.07 | 0.74 | 0.74 | 99 | 1004.2 |
| 20260506232659 | 56 | 193 | 0.0 | 0.9 | 0.07 | 0.73 | 0.73 | 99 | 1004.2 |
| 20260506232154 | 56 | 28 | 0.0 | 1.7 | 0.05 | 0.73 | 0.73 | 99 | 1004.3 |
| 20260506231652 | 56 | 304 | 1.7 | 2.6 | 0.02 | 0.72 | 0.72 | 99 | 1004.2 |
| 20260506231150 | 56 | 276 | 1.7 | 1.7 | 0.00 | 0.72 | 0.72 | 99 | 1004.2 |
| 20260506230647 | 56 | 293 | 0.0 | 0.9 | 0.00 | 0.72 | 0.72 | 98 | 1004.4 |
| 20260506230143 | 56 | 304 | 0.0 | 1.7 | 0.00 | 0.72 | 0.72 | 98 | 1004.3 |
| 20260506225640 | 56 | 269 | 0.0 | 1.7 | 0.00 | 0.72 | 0.72 | 98 | 1004.4 |
| 20260506225137 | 56 | 256 | 0.0 | 0.9 | 0.00 | 0.72 | 0.72 | 98 | 1004.6 |
| 20260506224633 | 56 | 230 | 0.0 | 0.0 | 0.02 | 0.72 | 0.72 | 98 | 1004.5 |
| 20260506224130 | 56 | 277 | 0.0 | 0.0 | 0.02 | 0.72 | 0.72 | 98 | 1004.4 |
| 20260506223626 | 56 | 269 | 0.0 | 0.0 | 0.00 | 0.71 | 0.71 | 98 | 1004.4 |
| 20260506223122 | 56 | 237 | 1.7 | 1.7 | 0.02 | 0.71 | 0.71 | 98 | 1004.5 |
| 20260506222620 | 56 | 315 | 0.0 | 0.0 | 0.12 | 0.71 | 0.71 | 98 | 1004.6 |
| 20260506222116 | 56 | 315 | 0.0 | 0.9 | 0.14 | 0.71 | 0.71 | 98 | 1004.7 |
| 20260506221614 | 56 | 278 | 2.6 | 2.6 | 0.07 | 0.69 | 0.69 | 98 | 1004.7 |
| 20260506221111 | 56 | 235 | 0.0 | 0.9 | 0.02 | 0.69 | 0.69 | 98 | 1004.9 |
| 20260506220608 | 56 | 230 | 0.0 | 0.0 | 0.00 | 0.68 | 0.68 | 98 | 1004.7 |
| 20260506215600 | 56 | 240 | 0.0 | 0.0 | 0.05 | 0.68 | 0.68 | 98 | 1005.2 |
| 20260506215055 | 56 | 246 | 0.0 | 0.0 | 0.07 | 0.68 | 0.68 | 98 | 1005.0 |
| 20260506214552 | 56 | 308 | 0.9 | 0.9 | 0.05 | 0.67 | 0.67 | 98 | 1005.1 |
| 20260506214050 | 56 | 274 | 0.0 | 0.9 | 0.07 | 0.67 | 0.67 | 98 | 1005.2 |
| 20260506213548 | 56 | 103 | 0.0 | 0.9 | 0.09 | 0.66 | 0.66 | 98 | 1005.2 |
| 20260506213045 | 56 | 230 | 0.0 | 0.0 | 0.05 | 0.65 | 0.65 | 98 | 1005.3 |
| 20260506212541 | 56 | 162 | 0.0 | 1.7 | 0.05 | 0.65 | 0.65 | 98 | 1005.3 |
| 20260506212036 | 56 | 171 | 0.0 | 1.7 | 0.09 | 0.65 | 0.65 | 98 | 1005.1 |
| 20260506211532 | 56 | 124 | 0.0 | 0.0 | 0.05 | 0.64 | 0.64 | 98 | 1005.5 |
| 20260506211030 | 56 | 293 | 0.0 | 0.0 | 0.00 | 0.63 | 0.63 | 98 | 1005.4 |
| 20260506210526 | 56 | 129 | 0.0 | 0.9 | 0.02 | 0.63 | 0.63 | 98 | 1005.4 |
| 20260506210023 | 56 | 277 | 0.0 | 1.7 | 0.05 | 0.63 | 0.63 | 98 | 1005.3 |
| 20260506205520 | 56 | 231 | 0.0 | 1.7 | 0.05 | 0.63 | 0.63 | 98 | 1005.3 |
| 20260506205015 | 56 | 309 | 0.0 | 0.9 | 0.02 | 0.62 | 0.62 | 98 | 1005.2 |
| 20260506204514 | 55 | 230 | 0.0 | 0.0 | 0.24 | 0.62 | 0.62 | 98 | 1005.0 |
| 20260506204010 | 55 | 309 | 0.0 | 0.0 | 0.38 | 0.61 | 0.61 | 98 | 1005.1 |
| 20260506203508 | 55 | 304 | 0.0 | 0.9 | 0.26 | 0.57 | 0.57 | 98 | 1005.1 |
| 20260506203004 | 55 | 289 | 1.7 | 2.6 | 0.52 | 0.55 | 0.55 | 97 | 1005.1 |
| 20260506202502 | 55 | 299 | 1.7 | 1.7 | 0.71 | 0.51 | 0.51 | 98 | 1005.2 |
| 20260506201958 | 56 | 315 | 0.0 | 1.7 | 0.50 | 0.45 | 0.45 | 97 | 1005.2 |
| 20260506201456 | 56 | 314 | 0.9 | 1.7 | 0.28 | 0.39 | 0.39 | 97 | 1005.1 |
| 20260506200952 | 56 | 64 | 0.0 | 0.9 | 0.28 | 0.36 | 0.36 | 97 | 1005.0 |
| 20260506200449 | 56 | 318 | 0.9 | 3.5 | 0.28 | 0.34 | 0.34 | 97 | 1005.3 |
| 20260506195945 | 56 | 293 | 1.7 | 1.7 | 0.26 | 0.32 | 0.32 | 97 | 1005.2 |
| 20260506195442 | 56 | 251 | 0.9 | 1.7 | 0.14 | 0.29 | 0.29 | 97 | 1005.5 |
| 20260506194938 | 56 | 264 | 0.9 | 0.9 | 0.07 | 0.27 | 0.27 | 97 | 1005.4 |
| 20260506194436 | 56 | 313 | 0.9 | 0.9 | 0.05 | 0.26 | 0.26 | 98 | 1005.6 |
| 20260506193932 | 56 | 253 | 0.0 | 0.9 | 0.07 | 0.26 | 0.26 | 98 | 1005.5 |
| 20260506193430 | 56 | 193 | 0.0 | 0.0 | 0.09 | 0.26 | 0.26 | 97 | 1005.6 |
| 20260506192926 | 56 | 129 | 0.0 | 0.9 | 0.09 | 0.25 | 0.25 | 97 | 1005.9 |
| 20260506192423 | 56 | 215 | 0.0 | 0.0 | 0.09 | 0.24 | 0.24 | 97 | 1005.9 |
| 20260506191920 | 56 | 315 | 0.0 | 0.9 | 0.09 | 0.23 | 0.23 | 97 | 1006.0 |
| 20260506191416 | 55 | 212 | 0.0 | 0.0 | 0.07 | 0.22 | 0.22 | 97 | 1006.1 |
| 20260506190914 | 55 | 215 | 0.0 | 1.7 | 0.07 | 0.22 | 0.22 | 97 | 1006.3 |
| 20260506190410 | 55 | 332 | 0.9 | 1.7 | 0.09 | 0.21 | 0.21 | 97 | 1006.1 |
| 20260506185907 | 55 | 273 | 0.9 | 1.7 | 0.09 | 0.20 | 0.20 | 97 | 1006.3 |
| 20260506185404 | 55 | 237 | 0.0 | 0.9 | 0.14 | 0.20 | 0.20 | 97 | 1006.5 |
| 20260506184901 | 55 | 258 | 1.7 | 2.6 | 0.14 | 0.18 | 0.18 | 97 | 1006.5 |
| 20260506184358 | 55 | 218 | 1.7 | 1.7 | 0.12 | 0.17 | 0.17 | 97 | 1006.4 |
| 20260506183855 | 55 | 266 | 1.7 | 3.5 | 0.09 | 0.16 | 0.16 | 97 | 1006.6 |
| 20260506183350 | 55 | 303 | 2.6 | 2.6 | 0.14 | 0.15 | 0.15 | 97 | 1006.6 |
| 20260506182848 | 55 | 265 | 0.9 | 2.6 | 0.09 | 0.14 | 0.14 | 96 | 1006.7 |
| 20260506182345 | 55 | 247 | 1.7 | 2.6 | 0.12 | 0.13 | 0.13 | 96 | 1006.9 |
| 20260506181842 | 56 | 316 | 0.9 | 1.7 | 0.17 | 0.13 | 0.13 | 96 | 1006.5 |
| 20260506181340 | 56 | 269 | 2.6 | 2.6 | 0.09 | 0.11 | 0.11 | 96 | 1006.7 |
| 20260506180837 | 56 | 280 | 2.6 | 2.6 | 0.05 | 0.10 | 0.10 | 95 | 1006.7 |
| 20260506180333 | 56 | 304 | 1.7 | 1.7 | 0.02 | 0.09 | 0.09 | 95 | 1006.6 |
| 20260506175829 | 56 | 293 | 0.0 | 0.9 | 0.05 | 0.09 | 0.09 | 95 | 1006.6 |
| 20260506175327 | 56 | 269 | 0.0 | 1.7 | 0.02 | 0.09 | 0.09 | 95 | 1006.7 |
| 20260506174824 | 56 | 208 | 1.7 | 1.7 | 0.02 | 0.08 | 0.08 | 94 | 1006.8 |
| 20260506174321 | 56 | 236 | 0.0 | 1.7 | 0.02 | 0.08 | 0.08 | 94 | 1006.8 |
| 20260506173818 | 57 | 233 | 1.7 | 1.7 | 0.00 | 0.08 | 0.08 | 93 | 1006.8 |
| 20260506173315 | 57 | 175 | 0.0 | 0.0 | 0.02 | 0.08 | 0.08 | 94 | 1006.8 |
| 20260506172812 | 56 | 157 | 0.0 | 0.9 | 0.02 | 0.08 | 0.08 | 93 | 1007.1 |
| 20260506172308 | 56 | 157 | 0.0 | 0.9 | 0.00 | 0.07 | 0.07 | 93 | 1007.0 |
| 20260506171806 | 56 | 264 | 0.0 | 1.7 | 0.00 | 0.07 | 0.07 | 94 | 1007.0 |
| 20260506171303 | 56 | 212 | 0.0 | 1.7 | 0.02 | 0.07 | 0.07 | 94 | 1007.3 |
| 20260506170801 | 56 | 225 | 0.0 | 0.9 | 0.02 | 0.07 | 0.07 | 93 | 1007.3 |
| 20260506170257 | 56 | 159 | 0.0 | 2.6 | 0.02 | 0.07 | 0.07 | 93 | 1007.3 |
| 20260506165755 | 56 | 184 | 0.0 | 0.9 | 0.05 | 0.07 | 0.07 | 93 | 1007.3 |
| 20260506165253 | 56 | 321 | 0.0 | 0.9 | 0.07 | 0.07 | 0.07 | 92 | 1007.3 |
| 20260506164749 | 57 | 309 | 0.0 | 0.0 | 0.02 | 0.06 | 0.06 | 93 | 1007.3 |
| 20260506164246 | 56 | 135 | 0.0 | 1.7 | 0.00 | 0.06 | 0.06 | 92 | 1007.8 |
| 20260506163743 | 57 | 219 | 0.0 | 1.7 | 0.02 | 0.06 | 0.06 | 93 | 1007.7 |
| 20260506163238 | 57 | 118 | 0.0 | 0.9 | 0.07 | 0.06 | 0.06 | 94 | 1007.9 |
| 20260506162734 | 56 | 283 | 0.0 | 0.0 | 0.05 | 0.05 | 0.05 | 94 | 1008.0 |
| 20260506162232 | 56 | 197 | 0.9 | 0.9 | 0.02 | 0.04 | 0.04 | 93 | 1008.4 |
| 20260506161729 | 56 | 127 | 0.0 | 0.9 | 0.05 | 0.04 | 0.04 | 92 | 1008.5 |
| 20260506161226 | 56 | 180 | 1.7 | 1.7 | 0.05 | 0.04 | 0.04 | 92 | 1008.6 |
| 20260506160724 | 56 | 147 | 0.0 | 0.0 | 0.02 | 0.04 | 0.04 | 93 | 1008.3 |
| 20260506160220 | 56 | 147 | 0.0 | 0.0 | 0.02 | 0.03 | 0.03 | 92 | 1008.4 |
| 20260506155719 | 56 | 119 | 0.0 | 1.7 | 0.05 | 0.03 | 0.03 | 91 | 1008.6 |
| 20260506155215 | 56 | 113 | 0.0 | 0.0 | 0.05 | 0.03 | 0.03 | 91 | 1008.7 |
| 20260506153317 | 56 | 256 | 0.0 | 1.7 | 0.00 | 0.02 | 0.02 | 88 | 1008.8 |
| 20260506152814 | 56 | 272 | 1.7 | 1.7 | 0.00 | 0.02 | 0.02 | 88 | 1008.6 |
| 20260506152311 | 56 | 309 | 1.7 | 2.6 | 0.00 | 0.02 | 0.02 | 87 | 1008.5 |
| 20260506151810 | 57 | 257 | 1.7 | 2.6 | 0.00 | 0.02 | 0.02 | 87 | 1008.6 |
| 20260506151306 | 57 | 251 | 1.7 | 3.5 | 0.00 | 0.02 | 0.02 | 86 | 1008.6 |
| 20260506150803 | 57 | 246 | 2.6 | 4.3 | 0.00 | 0.02 | 0.02 | 86 | 1008.6 |
| 20260506150304 | 57 | 267 | 1.7 | 2.6 | 0.00 | 0.02 | 0.02 | 86 | 1008.5 |
| 20260506145757 | 58 | 246 | 2.6 | 3.5 | 0.00 | 0.02 | 0.02 | 85 | 1008.3 |
| 20260506145253 | 58 | 187 | 0.9 | 1.7 | 0.00 | 0.02 | 0.02 | 82 | 1008.4 |
| 20260506144751 | 58 | 145 | 0.0 | 1.7 | 0.00 | 0.02 | 0.02 | 82 | 1008.5 |
| 20260506144248 | 58 | 248 | 0.9 | 1.7 | 0.00 | 0.02 | 0.02 | 82 | 1008.3 |
| 20260506143745 | 58 | 198 | 0.9 | 2.6 | 0.00 | 0.02 | 0.02 | 83 | 1008.2 |
| 20260506143243 | 58 | 122 | 0.0 | 1.7 | 0.00 | 0.02 | 0.02 | 86 | 1008.3 |
| 20260506142741 | 58 | 227 | 0.0 | 0.9 | 0.00 | 0.02 | 0.02 | 90 | 1008.3 |
| 20260506142239 | 57 | 259 | 1.7 | 2.6 | 0.00 | 0.02 | 0.02 | 89 | 1008.4 |
| 20260506141737 | 56 | 260 | 1.7 | 3.5 | 0.00 | 0.02 | 0.02 | 89 | 1008.6 |
| 20260506141235 | 56 | 269 | 3.5 | 4.3 | 0.00 | 0.02 | 0.02 | 90 | 1008.7 |
| 20260506140732 | 56 | 267 | 2.6 | 3.5 | 0.00 | 0.02 | 0.02 | 89 | 1008.7 |
| 20260506140229 | 56 | 256 | 0.9 | 1.7 | 0.00 | 0.02 | 0.02 | 88 | 1008.7 |
| 20260506135725 | 56 | 255 | 1.7 | 1.7 | 0.00 | 0.02 | 0.02 | 88 | 1008.8 |
| 20260506135222 | 56 | 242 | 1.7 | 1.7 | 0.00 | 0.02 | 0.02 | 89 | 1008.9 |
| 20260506134719 | 57 | 244 | 0.9 | 1.7 | 0.00 | 0.02 | 0.02 | 87 | 1008.9 |
| 20260506134215 | 56 | 230 | 0.0 | 0.9 | 0.00 | 0.02 | 0.02 | 88 | 1008.7 |
| 20260506133713 | 56 | 157 | 0.0 | 0.9 | 0.00 | 0.02 | 0.02 | 88 | 1008.7 |
| 20260506133209 | 56 | 253 | 0.0 | 1.7 | 0.00 | 0.02 | 0.02 | 89 | 1008.8 |
| 20260506132706 | 56 | 230 | 0.9 | 0.9 | 0.00 | 0.02 | 0.02 | 93 | 1009.0 |
| 20260506132203 | 55 | 269 | 0.0 | 1.7 | 0.00 | 0.02 | 0.02 | 92 | 1008.9 |
| 20260506131701 | 55 | 286 | 1.7 | 1.7 | 0.00 | 0.02 | 0.02 | 92 | 1008.8 |
| 20260506131156 | 55 | 281 | 1.7 | 1.7 | 0.00 | 0.02 | 0.02 | 92 | 1009.2 |
| 20260506130653 | 55 | 269 | 0.0 | 0.0 | 0.00 | 0.02 | 0.02 | 93 | 1009.1 |
| 20260506130151 | 55 | 103 | 0.0 | 0.9 | 0.00 | 0.02 | 0.02 | 92 | 1009.2 |
| 20260506125649 | 55 | 309 | 0.0 | 1.7 | 0.00 | 0.02 | 0.02 | 91 | 1009.3 |
| 20260506125146 | 55 | 247 | 0.9 | 1.7 | 0.00 | 0.02 | 0.02 | 92 | 1009.5 |
| 20260506124644 | 55 | 307 | 0.0 | 0.9 | 0.00 | 0.02 | 0.02 | 93 | 1009.6 |
| 20260506124142 | 55 | 259 | 1.7 | 1.7 | 0.00 | 0.02 | 0.02 | 93 | 1009.5 |
| 20260506123639 | 55 | 247 | 0.9 | 0.9 | 0.00 | 0.02 | 0.02 | 94 | 1009.5 |
| 20260506123138 | 55 | 273 | 1.7 | 1.7 | 0.00 | 0.02 | 0.02 | 95 | 1009.6 |
| 20260506122634 | 55 | 309 | 0.9 | 0.9 | 0.00 | 0.02 | 0.02 | 95 | 1009.5 |
| 20260506122132 | 55 | 306 | 0.0 | 0.9 | 0.00 | 0.02 | 0.02 | 95 | 1009.5 |
| 20260506121629 | 55 | 173 | 0.0 | 0.0 | 0.00 | 0.02 | 0.02 | 94 | 1009.2 |
| 20260506121125 | 54 | 145 | 0.0 | 0.9 | 0.00 | 0.02 | 0.02 | 93 | 1009.5 |
| 20260506120624 | 54 | 283 | 0.0 | 0.9 | 0.00 | 0.02 | 0.02 | 92 | 1009.4 |
| 20260506120121 | 54 | 281 | 1.7 | 1.7 | 0.00 | 0.02 | 0.02 | 93 | 1009.6 |
| 20260506115619 | 54 | 299 | 1.7 | 3.5 | 0.00 | 0.02 | 0.02 | 94 | 1009.7 |
| 20260506115117 | 54 | 261 | 3.5 | 3.5 | 0.00 | 0.02 | 0.02 | 97 | 1009.5 |
| 20260506114614 | 54 | 199 | 0.0 | 0.9 | 0.00 | 0.02 | 0.02 | 98 | 1009.5 |
| 20260506114112 | 54 | 247 | 1.7 | 1.7 | 0.00 | 0.02 | 0.02 | 98 | 1009.5 |
| 20260506113610 | 53 | 309 | 0.0 | 0.9 | 0.00 | 0.02 | 0.02 | 98 | 1009.4 |
| 20260506113107 | 54 | 224 | 0.0 | 0.9 | 0.00 | 0.02 | 0.02 | 98 | 1009.2 |
| 20260506112603 | 53 | 124 | 0.0 | 0.0 | 0.00 | 0.02 | 0.02 | 98 | 1009.2 |
| 20260506112101 | 53 | 116 | 0.0 | 0.9 | 0.00 | 0.02 | 0.02 | 98 | 1009.3 |
| 20260506111558 | 53 | 347 | 0.0 | 1.7 | 0.00 | 0.02 | 0.02 | 98 | 1009.5 |
| 20260506111055 | 53 | 310 | 0.0 | 1.7 | 0.00 | 0.02 | 0.02 | 98 | 1009.5 |
| 20260506110553 | 53 | 235 | 0.0 | 0.0 | 0.00 | 0.02 | 0.02 | 98 | 1009.2 |
| 20260506110050 | 53 | 235 | 0.0 | 0.0 | 0.00 | 0.02 | 0.02 | 98 | 1009.4 |
| 20260506105546 | 53 | 256 | 0.0 | 0.0 | 0.00 | 0.02 | 0.02 | 98 | 1009.5 |
| 20260506105044 | 53 | 110 | 0.9 | 1.7 | 0.00 | 0.02 | 0.02 | 98 | 1009.5 |
| 20260506104542 | 52 | 105 | 0.9 | 1.7 | 0.00 | 0.02 | 0.02 | 98 | 1009.5 |
| 20260506104039 | 52 | 112 | 0.0 | 0.9 | 0.00 | 0.02 | 0.02 | 98 | 1009.4 |
| 20260506103536 | 52 | 120 | 0.0 | 0.9 | 0.00 | 0.02 | 0.02 | 98 | 1009.5 |
| 20260506103033 | 52 | 124 | 0.0 | 0.0 | 0.00 | 0.02 | 0.02 | 98 | 1009.3 |
| 20260506102531 | 52 | 117 | 0.9 | 1.7 | 0.00 | 0.02 | 0.02 | 98 | 1009.3 |
| 20260506102028 | 52 | 103 | 0.0 | 0.9 | 0.00 | 0.02 | 0.02 | 98 | 1009.4 |
| 20260506101525 | 52 | 96 | 0.9 | 1.7 | 0.00 | 0.02 | 0.02 | 98 | 1009.4 |
| 20260506101022 | 51 | 88 | 1.7 | 1.7 | 0.00 | 0.02 | 0.02 | 98 | 1009.6 |
| 20260506100520 | 51 | 135 | 0.0 | 1.7 | 0.00 | 0.02 | 0.02 | 98 | 1009.6 |
| 20260506100018 | 51 | 106 | 0.0 | 0.0 | 0.00 | 0.02 | 0.02 | 98 | 1009.4 |
| 20260506095517 | 51 | 142 | 0.0 | 0.9 | 0.00 | 0.02 | 0.02 | 97 | 1009.2 |
| 20260506095012 | 51 | 212 | 0.0 | 0.9 | 0.00 | 0.02 | 0.02 | 97 | 1009.1 |
| 20260506094511 | 51 | 107 | 0.0 | 0.0 | 0.00 | 0.02 | 0.02 | 97 | 1009.0 |
| 20260506094008 | 52 | 92 | 0.9 | 1.7 | 0.00 | 0.02 | 0.02 | 97 | 1009.2 |
| 20260506093506 | 52 | 118 | 1.7 | 1.7 | 0.00 | 0.02 | 0.02 | 97 | 1009.1 |
| 20260506093004 | 52 | 304 | 0.0 | 0.9 | 0.00 | 0.02 | 0.02 | 97 | 1009.7 |
| 20260506092501 | 52 | 252 | 0.0 | 0.0 | 0.00 | 0.02 | 0.02 | 97 | 1009.5 |
| 20260506091957 | 52 | 328 | 0.0 | 0.9 | 0.00 | 0.02 | 0.02 | 97 | 1009.5 |
| 20260506091456 | 52 | 293 | 0.0 | 0.0 | 0.00 | 0.02 | 0.02 | 97 | 1009.3 |
| 20260506090953 | 52 | 67 | 0.9 | 1.7 | 0.00 | 0.02 | 0.02 | 96 | 1009.1 |
| 20260506090451 | 52 | 326 | 0.0 | 0.0 | 0.00 | 0.02 | 0.02 | 96 | 1008.9 |
| 20260506085946 | 52 | 89 | 0.0 | 1.7 | 0.00 | 0.02 | 0.02 | 96 | 1008.8 |
| 20260506085444 | 52 | 89 | 0.0 | 0.9 | 0.00 | 0.02 | 0.02 | 96 | 1008.8 |
| 20260506084940 | 52 | 114 | 0.0 | 0.9 | 0.00 | 0.02 | 0.02 | 96 | 1009.2 |
| 20260506084437 | 52 | 246 | 0.0 | 0.9 | 0.00 | 0.02 | 0.02 | 95 | 1008.8 |
| 20260506083933 | 52 | 278 | 0.0 | 1.7 | 0.00 | 0.02 | 0.02 | 95 | 1008.9 |
| 20260506083431 | 53 | 57 | 0.9 | 1.7 | 0.00 | 0.02 | 0.02 | 93 | 1008.9 |
| 20260506082928 | 53 | 122 | 1.7 | 1.7 | 0.00 | 0.02 | 0.02 | 91 | 1009.2 |
| 20260506082425 | 54 | 302 | 0.0 | 4.3 | 0.00 | 0.02 | 0.02 | 87 | 1008.9 |
| 20260506081920 | 55 | 287 | 2.6 | 3.5 | 0.02 | 0.02 | 0.02 | 85 | 1009.0 |
| 20260506081419 | 54 | 273 | 5.2 | 6.1 | 0.02 | 0.02 | 0.02 | 85 | 1009.3 |
| 20260506080916 | 54 | 293 | 2.6 | 2.6 | 0.00 | 0.01 | 0.01 | 88 | 1009.5 |
| 20260506080412 | 54 | 272 | 1.7 | 3.5 | 0.00 | 0.01 | 0.01 | 88 | 1009.4 |